Terminal Aerodrome Forecast
Issued by NWS

Home | Current Version | Previous Version | Text Only | Print | Product List | Glossary On
Versions: 1 2 3 4 5 6 7 8 9 10 11 12 13 14 15 16 17
890
FTUS42 KMHX 240538
TAFISO
TAF
KISO 240538Z 2406/2506 18013KT 4SM SHRA SCT007 OVC020
     FM240900 21008KT P6SM VCSH SCT007 BKN020
     FM241300 21011G18KT P6SM SCT040
     FM242300 23008KT P6SM SKC
      AMD LTD TO CLD VIS AND WIND=

USA.gov is the U.S. government's official web portal to all federal, state and local government web resources and services.